Time;durP1;ratioP1;P1;durP2;ratioP2;P2;SDS_P1;SDS_P2;PMS_P1;PMS_P2;Temp;Humidity;BMP_temperature;BMP_pressure;BME280_temperature;BME280_humidity;BME280_pressure;Samples;Min_cycle;Max_cycle;Signal;HPM_P1;HPM_P2
2021/06/01 00:00:51;;;;;;;6.83;4.57;;;;;;;;;;785547;176;937049;-75
2021/06/01 00:03:16;;;;;;;6.27;4.30;;;;;;;;;;783728;177;920641;-76
2021/06/01 00:05:40;;;;;;;6.37;4.43;;;;;;;;;;783416;176;918400;-76
2021/06/01 00:08:06;;;;;;;6.20;4.75;;;;;;;;;;788458;177;919117;-75
2021/06/01 00:10:32;;;;;;;6.77;4.83;;;;;;;;;;781493;176;918902;-75
2021/06/01 00:12:58;;;;;;;10.40;6.90;;;;;;;;;;781435;176;918912;-76
2021/06/01 00:15:24;;;;;;;7.43;4.50;;;;;;;;;;783807;179;896026;-75
2021/06/01 00:17:50;;;;;;;5.55;4.22;;;;;;;;;;789185;176;916764;-75
2021/06/01 00:20:16;;;;;;;4.43;3.63;;;;;;;;;;772786;180;918610;-75
2021/06/01 00:22:42;;;;;;;7.03;4.37;;;;;;;;;;780433;179;919594;-75
2021/06/01 00:25:08;;;;;;;6.70;4.47;;;;;;;;;;786718;177;916806;-75
2021/06/01 00:27:34;;;;;;;6.57;3.93;;;;;;;;;;782670;178;919073;-75
2021/06/01 00:30:00;;;;;;;6.57;4.60;;;;;;;;;;779946;177;1020335;-75
2021/06/01 00:32:26;;;;;;;8.00;5.37;;;;;;;;;;787665;177;918286;-76
2021/06/01 00:34:51;;;;;;;6.73;4.80;;;;;;;;;;781283;177;919542;-75
2021/06/01 00:37:17;;;;;;;8.13;4.83;;;;;;;;;;780845;179;919580;-75
2021/06/01 00:39:43;;;;;;;8.23;5.30;;;;;;;;;;780442;177;920985;-73
2021/06/01 00:42:09;;;;;;;7.63;5.10;;;;;;;;;;781361;178;919507;-76
2021/06/01 00:44:35;;;;;;;10.33;4.97;;;;;;;;;;781628;177;919661;-74
2021/06/01 00:47:01;;;;;;;7.20;5.10;;;;;;;;;;783649;176;915412;-74
2021/06/01 00:49:26;;;;;;;9.70;5.03;;;;;;;;;;788319;177;917051;-73
2021/06/01 00:51:53;;;;;;;8.10;5.28;;;;;;;;;;780710;179;917219;-73
2021/06/01 00:54:18;;;;;;;7.33;5.27;;;;;;;;;;780802;177;919236;-73
2021/06/01 00:56:44;;;;;;;7.90;5.47;;;;;;;;;;787300;178;919485;-74
2021/06/01 00:59:10;;;;;;;6.47;5.00;;;;;;;;;;780859;177;914035;-74
2021/06/01 01:01:36;;;;;;;12.40;5.77;;;;;;;;;;782235;176;918831;-73
2021/06/01 01:04:02;;;;;;;10.87;5.20;;;;;;;;;;786800;176;912829;-72
2021/06/01 01:06:34;;;;;;;8.40;5.50;;;;;;;;;;780712;177;912844;-73
2021/06/01 01:08:57;;;;;;;12.05;5.05;;;;;;;;;;781410;177;920759;-73
2021/06/01 01:11:25;;;;;;;9.90;5.57;;;;;;;;;;786157;177;908846;-70
2021/06/01 01:13:54;;;;;;;10.30;5.87;;;;;;;;;;786867;177;644257;-70
2021/06/01 01:16:19;;;;;;;7.37;5.20;;;;;;;;;;776648;177;919150;-70
2021/06/01 01:18:45;;;;;;;9.07;5.90;;;;;;;;;;782426;177;919504;-71
2021/06/01 01:21:15;;;;;;;6.50;5.10;;;;;;;;;;787374;177;919580;-70
2021/06/01 01:23:41;;;;;;;9.05;4.65;;;;;;;;;;786083;176;1021697;-71
2021/06/01 01:26:06;;;;;;;7.63;4.97;;;;;;;;;;782966;177;917456;-71
2021/06/01 01:28:40;;;;;;;9.00;5.40;;;;;;;;;;782612;179;919087;-71
2021/06/01 01:31:08;;;;;;;7.67;5.77;;;;;;;;;;785854;178;918192;-71
2021/06/01 01:33:34;;;;;;;7.73;4.90;;;;;;;;;;787635;179;896894;-70
2021/06/01 01:36:00;;;;;;;4.47;3.43;;;;;;;;;;781524;177;918955;-70
2021/06/01 01:38:26;;;;;;;7.53;4.50;;;;;;;;;;780978;177;919545;-70
2021/06/01 01:40:52;;;;;;;5.90;3.50;;;;;;;;;;787181;179;924330;-70
2021/06/01 01:43:19;;;;;;;7.97;4.33;;;;;;;;;;781593;177;919483;-70
2021/06/01 01:45:47;;;;;;;7.03;4.13;;;;;;;;;;780767;179;919391;-70
2021/06/01 01:50:41;;;;;;;5.17;3.83;;;;;;;;;;781752;179;919818;-70
2021/06/01 01:53:07;;;;;;;6.80;4.10;;;;;;;;;;778732;179;919047;-70
2021/06/01 01:55:33;;;;;;;7.23;4.43;;;;;;;;;;780446;179;919009;-70
2021/06/01 01:57:59;;;;;;;6.10;4.13;;;;;;;;;;788923;176;920070;-69
2021/06/01 02:00:25;;;;;;;5.37;4.65;;;;;;;;;;780438;177;919728;-69
2021/06/01 02:02:51;;;;;;;5.10;3.65;;;;;;;;;;780552;177;918288;-70
2021/06/01 02:05:16;;;;;;;6.40;4.37;;;;;;;;;;786874;179;919068;-69
2021/06/01 02:07:42;;;;;;;7.40;4.90;;;;;;;;;;782480;179;918735;-70
2021/06/01 02:10:09;;;;;;;6.70;4.50;;;;;;;;;;782736;177;918849;-70
2021/06/01 02:12:34;;;;;;;7.63;4.33;;;;;;;;;;787802;177;919174;-70
2021/06/01 02:15:01;;;;;;;7.17;4.57;;;;;;;;;;780937;177;919141;-71
2021/06/01 02:17:26;;;;;;;7.77;4.60;;;;;;;;;;781516;177;917950;-71
2021/06/01 02:19:52;;;;;;;4.77;3.60;;;;;;;;;;779964;177;919124;-70
2021/06/01 02:22:28;;;;;;;6.10;4.90;;;;;;;;;;784198;178;918772;-70
2021/06/01 02:24:53;;;;;;;6.57;4.57;;;;;;;;;;781566;177;919408;-71
2021/06/01 02:27:35;;;;;;;8.27;5.03;;;;;;;;;;786511;176;917812;-71
2021/06/01 02:30:03;;;;;;;11.50;4.87;;;;;;;;;;782007;176;917179;-71
2021/06/01 02:32:33;;;;;;;6.77;5.13;;;;;;;;;;782261;176;918071;-71
2021/06/01 02:34:59;;;;;;;5.27;4.13;;;;;;;;;;785870;175;919162;-71
2021/06/01 02:37:25;;;;;;;7.10;4.90;;;;;;;;;;783761;175;919141;-71
2021/06/01 02:39:51;;;;;;;9.33;5.73;;;;;;;;;;783749;177;920000;-71
2021/06/01 02:42:16;;;;;;;6.03;4.40;;;;;;;;;;790467;178;918980;-70
2021/06/01 02:44:42;;;;;;;8.33;6.30;;;;;;;;;;781076;177;919210;-70
2021/06/01 02:47:08;;;;;;;7.07;5.00;;;;;;;;;;781627;177;918682;-71
2021/06/01 02:49:34;;;;;;;7.37;5.70;;;;;;;;;;787885;179;919601;-71
2021/06/01 02:52:00;;;;;;;6.63;5.00;;;;;;;;;;780720;176;919572;-71
2021/06/01 02:54:26;;;;;;;10.93;6.27;;;;;;;;;;780651;177;1021656;-70
2021/06/01 02:56:51;;;;;;;7.17;5.27;;;;;;;;;;783098;176;919140;-70
2021/06/01 02:59:17;;;;;;;8.90;5.80;;;;;;;;;;786223;178;918561;-71
2021/06/01 03:01:43;;;;;;;7.33;5.33;;;;;;;;;;779717;177;919702;-71
2021/06/01 03:04:09;;;;;;;7.43;5.30;;;;;;;;;;780795;176;919237;-71
2021/06/01 03:06:35;;;;;;;10.97;5.90;;;;;;;;;;786723;177;919382;-71
2021/06/01 03:09:01;;;;;;;6.83;5.17;;;;;;;;;;781359;177;920192;-71
2021/06/01 03:11:26;;;;;;;9.27;5.90;;;;;;;;;;779836;178;920210;-71
2021/06/01 03:13:52;;;;;;;10.37;6.50;;;;;;;;;;787337;178;920244;-72
2021/06/01 03:16:19;;;;;;;7.57;5.30;;;;;;;;;;780791;178;919867;-71
2021/06/01 03:18:44;;;;;;;7.67;5.50;;;;;;;;;;780859;177;920750;-71
2021/06/01 03:21:10;;;;;;;10.60;5.60;;;;;;;;;;782177;179;917702;-69
2021/06/01 03:23:36;;;;;;;9.33;6.20;;;;;;;;;;783549;179;919829;-71
2021/06/01 03:26:03;;;;;;;8.20;5.60;;;;;;;;;;774233;179;913734;-70
2021/06/01 03:28:27;;;;;;;15.53;6.53;;;;;;;;;;775399;179;920425;-71
2021/06/01 03:30:53;;;;;;;13.53;7.00;;;;;;;;;;785655;176;916295;-70
2021/06/01 03:33:19;;;;;;;9.27;6.10;;;;;;;;;;780993;177;916178;-70
2021/06/01 03:35:45;;;;;;;10.70;6.70;;;;;;;;;;776763;179;916019;-69
2021/06/01 03:38:11;;;;;;;10.87;7.87;;;;;;;;;;788973;177;919004;-71
2021/06/01 03:40:37;;;;;;;12.63;7.40;;;;;;;;;;783586;178;918954;-71
2021/06/01 03:43:02;;;;;;;9.37;6.00;;;;;;;;;;782559;178;918273;-71
2021/06/01 03:45:28;;;;;;;9.70;6.93;;;;;;;;;;787002;179;918947;-71
2021/06/01 03:47:54;;;;;;;12.47;6.57;;;;;;;;;;781973;179;918967;-71
2021/06/01 03:50:20;;;;;;;11.88;7.20;;;;;;;;;;781959;178;918959;-70
2021/06/01 03:52:46;;;;;;;8.87;6.43;;;;;;;;;;782669;179;919752;-70
2021/06/01 03:55:12;;;;;;;16.80;11.30;;;;;;;;;;789392;177;916911;-71
2021/06/01 03:57:38;;;;;;;20.20;12.80;;;;;;;;;;786809;177;618855;-72
2021/06/01 04:00:05;;;;;;;18.93;12.50;;;;;;;;;;783081;177;919457;-72
2021/06/01 04:02:30;;;;;;;20.03;11.87;;;;;;;;;;788855;177;870794;-71
2021/06/01 04:04:56;;;;;;;20.73;14.30;;;;;;;;;;771698;178;920426;-70
2021/06/01 04:07:22;;;;;;;21.33;12.80;;;;;;;;;;781186;177;919052;-72
2021/06/01 04:09:48;;;;;;;18.83;13.50;;;;;;;;;;785020;178;916445;-70
2021/06/01 04:12:14;;;;;;;21.70;12.93;;;;;;;;;;782008;177;918251;-70
2021/06/01 04:14:40;;;;;;;23.85;15.45;;;;;;;;;;780660;177;920736;-71
2021/06/01 04:17:06;;;;;;;19.05;12.80;;;;;;;;;;784853;177;919737;-71
2021/06/01 04:19:33;;;;;;;17.50;13.53;;;;;;;;;;779122;179;942687;-72
2021/06/01 04:21:58;;;;;;;20.17;14.03;;;;;;;;;;781596;179;920368;-72
2021/06/01 04:24:27;;;;;;;23.50;14.27;;;;;;;;;;777562;179;917253;-71
2021/06/01 04:26:52;;;;;;;19.30;12.80;;;;;;;;;;779587;180;918199;-73
2021/06/01 04:29:18;;;;;;;20.13;14.80;;;;;;;;;;778574;177;918902;-73
2021/06/01 04:31:44;;;;;;;18.70;13.73;;;;;;;;;;780532;177;918051;-73
2021/06/01 04:34:10;;;;;;;27.50;15.27;;;;;;;;;;787967;179;917462;-73
2021/06/01 04:36:36;;;;;;;28.10;17.27;;;;;;;;;;781263;177;917529;-74
2021/06/01 04:39:02;;;;;;;24.23;16.33;;;;;;;;;;785409;177;926105;-73
2021/06/01 04:41:28;;;;;;;23.60;16.60;;;;;;;;;;780578;177;917029;-72
2021/06/01 04:43:53;;;;;;;27.70;16.60;;;;;;;;;;785525;177;918116;-73
2021/06/01 04:46:19;;;;;;;24.10;17.07;;;;;;;;;;782836;177;964175;-74
2021/06/01 04:48:45;;;;;;;27.00;15.30;;;;;;;;;;781053;176;915796;-74
2021/06/01 04:51:16;;;;;;;25.40;15.17;;;;;;;;;;790561;177;923495;-74
2021/06/01 04:53:44;;;;;;;21.80;15.57;;;;;;;;;;787997;178;627034;-75
2021/06/01 04:56:10;;;;;;;21.23;14.83;;;;;;;;;;790893;176;636957;-74
2021/06/01 04:58:36;;;;;;;24.33;17.17;;;;;;;;;;782673;176;913289;-74
2021/06/01 05:01:02;;;;;;;24.67;17.70;;;;;;;;;;786188;179;910586;-74
2021/06/01 05:03:28;;;;;;;19.80;14.77;;;;;;;;;;782424;178;920112;-74
2021/06/01 05:05:54;;;;;;;22.07;15.17;;;;;;;;;;781875;178;919125;-73
2021/06/01 05:08:20;;;;;;;27.20;15.50;;;;;;;;;;786591;177;918790;-74
2021/06/01 05:10:45;;;;;;;25.57;15.20;;;;;;;;;;781777;177;920809;-74
2021/06/01 05:13:11;;;;;;;18.90;12.90;;;;;;;;;;781977;176;919260;-74
2021/06/01 05:15:37;;;;;;;19.20;13.97;;;;;;;;;;786607;177;918612;-75
2021/06/01 05:18:03;;;;;;;22.50;15.40;;;;;;;;;;784831;177;904294;-76
2021/06/01 05:20:29;;;;;;;21.37;14.50;;;;;;;;;;787010;177;619376;-75
2021/06/01 05:22:55;;;;;;;18.40;15.17;;;;;;;;;;790041;177;918538;-75
2021/06/01 05:25:21;;;;;;;23.23;13.43;;;;;;;;;;782915;177;920406;-74
2021/06/01 05:27:46;;;;;;;16.80;12.40;;;;;;;;;;779872;177;919100;-75
2021/06/01 05:30:17;;;;;;;27.00;14.67;;;;;;;;;;780410;177;919400;-72
2021/06/01 05:33:09;;;;;;;20.90;12.77;;;;;;;;;;787314;176;1014757;-75
2021/06/01 05:35:18;;;;;;;20.13;12.70;;;;;;;;;;776205;179;920085;-75
2021/06/01 05:37:34;;;;;;;20.27;13.63;;;;;;;;;;776419;177;918214;-77
2021/06/01 05:40:00;;;;;;;19.60;13.77;;;;;;;;;;789357;179;1023886;-73
2021/06/01 05:42:26;;;;;;;18.33;12.17;;;;;;;;;;784434;179;1126420;-75
2021/06/01 05:44:52;;;;;;;19.23;12.27;;;;;;;;;;790321;178;918551;-74
2021/06/01 05:47:18;;;;;;;18.73;10.90;;;;;;;;;;784215;178;920146;-76
2021/06/01 05:49:44;;;;;;;14.27;11.10;;;;;;;;;;784640;177;920124;-78
2021/06/01 05:52:09;;;;;;;13.17;9.53;;;;;;;;;;781499;176;918517;-77
2021/06/01 05:54:35;;;;;;;12.60;9.77;;;;;;;;;;778323;177;1020494;-78
2021/06/01 05:57:01;;;;;;;14.60;11.17;;;;;;;;;;785976;177;918082;-78
2021/06/01 05:59:27;;;;;;;15.37;10.60;;;;;;;;;;780916;178;919000;-78
2021/06/01 06:01:53;;;;;;;15.37;11.20;;;;;;;;;;784567;176;919590;-79
2021/06/01 06:04:19;;;;;;;16.53;10.10;;;;;;;;;;790894;178;859500;-78
2021/06/01 06:06:45;;;;;;;13.57;8.83;;;;;;;;;;782729;176;919490;-79
2021/06/01 06:09:10;;;;;;;12.90;9.03;;;;;;;;;;782888;176;920459;-79
2021/06/01 06:11:36;;;;;;;11.98;8.32;;;;;;;;;;788245;176;812587;-80
2021/06/01 06:14:02;;;;;;;11.53;7.93;;;;;;;;;;783428;176;916383;-78
2021/06/01 06:16:28;;;;;;;16.17;8.27;;;;;;;;;;784476;177;915499;-79
2021/06/01 06:18:56;;;;;;;10.20;7.40;;;;;;;;;;782450;178;915204;-79
2021/06/01 06:21:22;;;;;;;17.17;8.00;;;;;;;;;;786213;177;919040;-79
2021/06/01 06:23:48;;;;;;;9.97;7.10;;;;;;;;;;781916;179;919667;-77
2021/06/01 06:26:14;;;;;;;12.33;6.37;;;;;;;;;;782076;176;919184;-80
2021/06/01 06:28:40;;;;;;;10.27;6.87;;;;;;;;;;787787;179;927270;-77
2021/06/01 06:31:06;;;;;;;8.53;6.00;;;;;;;;;;784872;176;919187;-78
2021/06/01 06:33:32;;;;;;;10.03;5.10;;;;;;;;;;782816;179;869360;-81
2021/06/01 06:35:58;;;;;;;8.20;5.80;;;;;;;;;;788474;177;814822;-77
2021/06/01 06:38:24;;;;;;;9.67;7.50;;;;;;;;;;782462;177;917878;-78
2021/06/01 06:41:08;;;;;;;9.30;6.10;;;;;;;;;;780812;179;917126;-77
2021/06/01 06:43:20;;;;;;;8.17;5.73;;;;;;;;;;780678;176;912799;-78
2021/06/01 06:45:47;;;;;;;11.40;6.22;;;;;;;;;;788558;176;818909;-80
2021/06/01 06:48:12;;;;;;;7.50;4.80;;;;;;;;;;781943;177;919358;-77
2021/06/01 06:50:38;;;;;;;7.70;5.17;;;;;;;;;;780653;179;919266;-76
2021/06/01 06:53:04;;;;;;;8.67;5.13;;;;;;;;;;786494;179;919110;-81
2021/06/01 06:55:30;;;;;;;8.30;4.73;;;;;;;;;;782546;176;920145;-81
2021/06/01 06:57:56;;;;;;;9.87;5.73;;;;;;;;;;782084;176;918405;-80
2021/06/01 07:00:23;;;;;;;6.70;5.10;;;;;;;;;;783498;177;916267;-75
2021/06/01 07:02:48;;;;;;;10.53;7.90;;;;;;;;;;786123;178;918264;-76
2021/06/01 07:05:13;;;;;;;9.87;6.43;;;;;;;;;;782353;177;911835;-77
2021/06/01 07:07:39;;;;;;;10.00;6.23;;;;;;;;;;779894;179;916814;-76
2021/06/01 07:10:06;;;;;;;9.70;5.83;;;;;;;;;;786626;177;919268;-76
2021/06/01 07:12:31;;;;;;;7.07;5.40;;;;;;;;;;785967;177;1020260;-83
2021/06/01 07:15:03;;;;;;;10.40;6.67;;;;;;;;;;782338;176;922074;-77
2021/06/01 07:17:28;;;;;;;8.70;6.30;;;;;;;;;;789915;177;817071;-79
2021/06/01 07:19:55;;;;;;;11.17;5.50;;;;;;;;;;778697;179;925337;-76
2021/06/01 07:22:19;;;;;;;6.80;5.00;;;;;;;;;;770890;179;910947;-77
2021/06/01 07:24:44;;;;;;;9.17;6.37;;;;;;;;;;781287;176;918569;-77
2021/06/01 07:27:10;;;;;;;9.90;6.03;;;;;;;;;;788130;179;918841;-78
2021/06/01 07:29:36;;;;;;;12.10;6.53;;;;;;;;;;782935;179;917643;-74
2021/06/01 07:32:02;;;;;;;13.15;6.30;;;;;;;;;;783715;179;920445;-77
2021/06/01 07:34:28;;;;;;;8.30;5.40;;;;;;;;;;787606;177;918523;-75
2021/06/01 07:36:54;;;;;;;8.50;5.77;;;;;;;;;;781890;177;923014;-84
2021/06/01 07:39:19;;;;;;;10.13;6.10;;;;;;;;;;782813;177;917060;-77
2021/06/01 07:41:45;;;;;;;9.13;5.83;;;;;;;;;;786666;177;917879;-75
2021/06/01 07:44:11;;;;;;;11.50;6.40;;;;;;;;;;785606;177;916400;-81
2021/06/01 07:46:37;;;;;;;10.50;5.60;;;;;;;;;;783315;177;816033;-77
2021/06/01 07:49:03;;;;;;;11.60;6.13;;;;;;;;;;785893;177;815294;-78
2021/06/01 07:51:29;;;;;;;9.60;6.00;;;;;;;;;;787397;176;879754;-74
2021/06/01 07:53:59;;;;;;;10.30;5.57;;;;;;;;;;773690;177;821980;-78
2021/06/01 07:56:24;;;;;;;9.90;5.50;;;;;;;;;;780991;177;919163;-76
2021/06/01 07:58:50;;;;;;;8.80;4.33;;;;;;;;;;777999;179;884658;-75
2021/06/01 08:01:16;;;;;;;9.67;5.43;;;;;;;;;;783305;176;918941;-76
2021/06/01 08:03:42;;;;;;;7.63;4.17;;;;;;;;;;781363;177;1021595;-76
2021/06/01 08:06:09;;;;;;;11.63;4.00;;;;;;;;;;787002;177;917685;-72
2021/06/01 08:08:34;;;;;;;5.43;3.90;;;;;;;;;;776229;179;918782;-74
2021/06/01 08:10:59;;;;;;;9.68;4.18;;;;;;;;;;781116;177;918625;-71
2021/06/01 08:13:27;;;;;;;7.70;4.60;;;;;;;;;;783702;177;915965;-73
2021/06/01 08:15:52;;;;;;;8.87;4.33;;;;;;;;;;783210;177;889417;-74
2021/06/01 08:18:19;;;;;;;5.83;3.77;;;;;;;;;;783554;177;867303;-75
2021/06/01 08:20:55;;;;;;;10.87;3.27;;;;;;;;;;780837;177;915556;-72
2021/06/01 08:23:09;;;;;;;10.20;4.63;;;;;;;;;;784027;177;918924;-74
2021/06/01 08:25:35;;;;;;;5.50;3.63;;;;;;;;;;785867;176;816392;-71
2021/06/01 08:28:00;;;;;;;5.60;3.60;;;;;;;;;;783879;178;923666;-73
2021/06/01 08:30:30;;;;;;;7.63;3.30;;;;;;;;;;787458;177;877540;-75
2021/06/01 08:32:54;;;;;;;6.40;2.80;;;;;;;;;;783516;177;919626;-74
2021/06/01 08:35:20;;;;;;;17.03;3.00;;;;;;;;;;781796;177;917787;-73
2021/06/01 08:37:46;;;;;;;4.30;2.70;;;;;;;;;;781550;177;1017848;-72
2021/06/01 08:40:12;;;;;;;4.03;2.80;;;;;;;;;;774707;179;918169;-72
2021/06/01 08:42:39;;;;;;;5.03;2.73;;;;;;;;;;778895;177;920074;-74
2021/06/01 08:45:06;;;;;;;4.20;2.58;;;;;;;;;;773044;177;918937;-74
2021/06/01 08:47:31;;;;;;;6.10;3.50;;;;;;;;;;787672;176;1015203;-72
2021/06/01 08:49:57;;;;;;;11.27;3.10;;;;;;;;;;782170;177;907600;-72
2021/06/01 08:52:23;;;;;;;6.47;3.20;;;;;;;;;;780940;178;919546;-71
2021/06/01 08:54:48;;;;;;;5.20;2.60;;;;;;;;;;787099;177;919463;-74
2021/06/01 08:57:14;;;;;;;4.23;2.40;;;;;;;;;;782525;176;919414;-74
2021/06/01 08:59:41;;;;;;;5.53;2.93;;;;;;;;;;781488;179;918524;-71
2021/06/01 09:02:07;;;;;;;7.62;2.87;;;;;;;;;;785617;177;918954;-72
2021/06/01 09:04:38;;;;;;;4.10;3.00;;;;;;;;;;783834;177;919879;-75
2021/06/01 09:07:09;;;;;;;6.10;2.50;;;;;;;;;;782367;177;919313;-75
2021/06/01 09:09:44;;;;;;;9.03;2.73;;;;;;;;;;778930;177;918978;-72
2021/06/01 09:15:12;;;;;;;4.30;2.80;;;;;;;;;;785194;178;867886;-73
2021/06/01 09:22:34;;;;;;;4.20;3.20;;;;;;;;;;786218;177;918606;-74
2021/06/01 09:25:05;;;;;;;5.63;3.10;;;;;;;;;;783347;177;914925;-75
2021/06/01 09:27:32;;;;;;;5.97;3.47;;;;;;;;;;781170;177;919270;-72
2021/06/01 09:29:57;;;;;;;5.67;3.33;;;;;;;;;;784650;179;917290;-73
2021/06/01 09:32:23;;;;;;;9.70;3.50;;;;;;;;;;783153;178;913309;-76
2021/06/01 09:34:51;;;;;;;3.70;3.20;;;;;;;;;;781075;177;918662;-74
2021/06/01 09:37:18;;;;;;;5.97;3.50;;;;;;;;;;778491;179;918844;-75
2021/06/01 09:39:44;;;;;;;7.00;3.27;;;;;;;;;;786551;179;917358;-74
2021/06/01 09:42:16;;;;;;;6.00;4.37;;;;;;;;;;784643;178;918704;-73
2021/06/01 09:44:42;;;;;;;13.40;3.80;;;;;;;;;;784236;176;918835;-71
2021/06/01 09:47:07;;;;;;;6.22;3.08;;;;;;;;;;781823;179;864944;-75
2021/06/01 09:49:33;;;;;;;5.07;3.20;;;;;;;;;;778545;177;866132;-72
2021/06/01 09:52:04;;;;;;;4.03;2.87;;;;;;;;;;783205;176;919584;-71
2021/06/01 09:54:32;;;;;;;6.80;3.33;;;;;;;;;;779342;177;919476;-74
2021/06/01 09:56:56;;;;;;;8.10;3.53;;;;;;;;;;787145;177;907788;-74
2021/06/01 09:59:22;;;;;;;4.90;3.40;;;;;;;;;;782571;176;908325;-76
2021/06/01 10:01:48;;;;;;;4.73;2.97;;;;;;;;;;784125;177;916722;-74
2021/06/01 10:04:20;;;;;;;8.27;3.37;;;;;;;;;;786959;176;913815;-73
2021/06/01 10:06:46;;;;;;;5.77;3.10;;;;;;;;;;784286;179;885198;-72
2021/06/01 10:09:11;;;;;;;4.40;3.00;;;;;;;;;;770646;179;946015;-73
2021/06/01 10:11:37;;;;;;;5.53;3.00;;;;;;;;;;782045;177;933789;-74
2021/06/01 10:14:03;;;;;;;6.80;3.77;;;;;;;;;;788359;177;918561;-76
2021/06/01 10:16:29;;;;;;;5.43;4.20;;;;;;;;;;782729;177;919033;-74
2021/06/01 10:18:55;;;;;;;9.43;3.07;;;;;;;;;;783641;177;889801;-73
2021/06/01 10:21:21;;;;;;;5.17;3.47;;;;;;;;;;787465;177;919671;-75
2021/06/01 10:23:50;;;;;;;3.40;2.47;;;;;;;;;;781159;179;916489;-73
2021/06/01 10:26:12;;;;;;;5.30;3.00;;;;;;;;;;782697;177;816534;-74
2021/06/01 10:28:42;;;;;;;4.13;2.73;;;;;;;;;;789287;178;918572;-76
2021/06/01 10:31:05;;;;;;;6.83;2.70;;;;;;;;;;780010;177;921304;-71
2021/06/01 10:33:33;;;;;;;7.30;2.90;;;;;;;;;;781976;177;919183;-72
2021/06/01 10:36:09;;;;;;;8.30;2.90;;;;;;;;;;783875;177;920018;-72
2021/06/01 10:49:38;;;;;;;5.40;3.20;;;;;;;;;;774747;176;816243;-75
2021/06/01 10:51:27;;;;;;;6.23;2.53;;;;;;;;;;780712;178;827894;-77
2021/06/01 10:53:53;;;;;;;3.87;2.50;;;;;;;;;;787718;178;917615;-73
2021/06/01 10:56:18;;;;;;;10.20;2.63;;;;;;;;;;783000;176;920104;-75
2021/06/01 10:59:06;;;;;;;4.63;2.73;;;;;;;;;;784277;179;816707;-76
2021/06/01 11:04:02;;;;;;;4.60;2.90;;;;;;;;;;783893;176;919802;-73
2021/06/01 11:06:32;;;;;;;5.07;3.07;;;;;;;;;;788007;177;937160;-71
2021/06/01 11:08:54;;;;;;;4.13;2.83;;;;;;;;;;782537;177;919108;-73
2021/06/01 11:11:26;;;;;;;7.70;2.90;;;;;;;;;;784312;177;918419;-74
2021/06/01 11:13:52;;;;;;;5.77;3.00;;;;;;;;;;783976;176;918686;-71
2021/06/01 11:16:18;;;;;;;6.57;3.33;;;;;;;;;;786823;177;917668;-73
2021/06/01 11:18:50;;;;;;;4.10;2.40;;;;;;;;;;783867;178;918754;-73
2021/06/01 11:21:18;;;;;;;5.23;2.47;;;;;;;;;;781620;177;941743;-71
2021/06/01 11:23:49;;;;;;;4.93;2.62;;;;;;;;;;787344;179;816709;-70
2021/06/01 11:33:45;;;;;;;3.30;2.67;;;;;;;;;;781892;177;919359;-74
2021/06/01 11:36:12;;;;;;;3.63;2.70;;;;;;;;;;787886;179;815461;-70
2021/06/01 11:38:41;;;;;;;9.40;2.87;;;;;;;;;;780587;179;918109;-74
2021/06/01 11:43:45;;;;;;;4.80;3.20;;;;;;;;;;776909;176;829226;-71
2021/06/01 11:46:15;;;;;;;3.13;2.30;;;;;;;;;;787511;176;918230;-70
2021/06/01 11:51:25;;;;;;;15.13;3.10;;;;;;;;;;776736;178;918516;-76
2021/06/01 11:53:50;;;;;;;4.77;3.00;;;;;;;;;;770970;179;918851;-72
2021/06/01 11:56:19;;;;;;;5.10;2.93;;;;;;;;;;777847;177;919070;-73
2021/06/01 12:04:07;;;;;;;5.03;2.60;;;;;;;;;;784141;178;918549;-72
2021/06/01 12:11:41;;;;;;;9.70;3.37;;;;;;;;;;787636;178;819154;-73
2021/06/01 12:13:59;;;;;;;5.27;3.00;;;;;;;;;;777570;177;919782;-70
2021/06/01 12:18:56;;;;;;;5.63;2.90;;;;;;;;;;781292;177;924449;-71
2021/06/01 12:21:23;;;;;;;3.60;2.20;;;;;;;;;;786738;179;918707;-71
2021/06/01 12:23:54;;;;;;;3.60;2.53;;;;;;;;;;774368;178;919963;-72
2021/06/01 12:26:24;;;;;;;6.03;3.20;;;;;;;;;;775213;177;653286;-72
2021/06/01 12:31:25;;;;;;;4.23;2.80;;;;;;;;;;785386;177;656226;-71
2021/06/01 12:33:55;;;;;;;4.37;2.50;;;;;;;;;;785164;178;636980;-71
2021/06/01 12:37:07;;;;;;;3.60;2.80;;;;;;;;;;780099;176;628158;-70
2021/06/01 12:43:59;;;;;;;6.90;2.40;;;;;;;;;;784865;178;620740;-72
2021/06/01 13:09:28;;;;;;;6.23;2.97;;;;;;;;;;790547;177;631093;-71
2021/06/01 13:14:24;;;;;;;6.60;2.50;;;;;;;;;;788520;178;619454;-74
2021/06/01 13:19:25;;;;;;;7.70;5.40;;;;;;;;;;786737;178;629029;-71
2021/06/01 13:32:44;;;;;;;4.67;2.70;;;;;;;;;;785443;176;629772;-71
2021/06/01 13:40:07;;;;;;;3.50;2.50;;;;;;;;;;779979;176;624179;-73
2021/06/01 13:47:34;;;;;;;3.47;2.87;;;;;;;;;;785502;178;660426;-73
2021/06/01 13:50:03;;;;;;;4.43;3.07;;;;;;;;;;782833;177;696110;-72
2021/06/01 14:00:36;;;;;;;4.10;3.13;;;;;;;;;;787207;177;628863;-72
2021/06/01 14:10:49;;;;;;;4.03;3.37;;;;;;;;;;790334;179;625448;-72
2021/06/01 14:21:35;;;;;;;5.77;3.20;;;;;;;;;;784875;176;747109;-75
2021/06/01 14:29:32;;;;;;;6.97;3.27;;;;;;;;;;791609;177;623329;-72
2021/06/01 14:36:23;;;;;;;6.87;5.03;;;;;;;;;;783696;176;919350;-73
2021/06/01 14:40:16;;;;;;;6.63;3.97;;;;;;;;;;782116;178;653451;-73
2021/06/01 14:54:51;;;;;;;5.90;3.87;;;;;;;;;;771862;179;642403;-72
2021/06/01 15:03:48;;;;;;;7.70;4.43;;;;;;;;;;783973;178;624137;-73
2021/06/01 15:04:31;;;;;;;8.93;4.90;;;;;;;;;;775777;179;633513;-71
2021/06/01 15:09:50;;;;;;;5.90;4.73;;;;;;;;;;773942;177;625706;-73
2021/06/01 15:30:24;;;;;;;5.73;3.63;;;;;;;;;;783931;176;663775;-71
2021/06/01 15:32:50;;;;;;;7.57;4.80;;;;;;;;;;789757;178;632141;-71
2021/06/01 15:47:48;;;;;;;8.03;5.80;;;;;;;;;;783286;177;614818;-71
2021/06/01 15:53:03;;;;;;;14.67;6.03;;;;;;;;;;777352;178;619023;-73
2021/06/01 16:13:15;;;;;;;25.57;15.00;;;;;;;;;;788537;179;631540;-74
2021/06/01 16:21:22;;;;;;;8.33;7.33;;;;;;;;;;782793;176;822819;-74
2021/06/01 16:23:08;;;;;;;9.50;5.60;;;;;;;;;;789239;177;636569;-72
2021/06/01 16:31:11;;;;;;;9.10;6.43;;;;;;;;;;784650;177;636545;-75
2021/06/01 16:33:40;;;;;;;11.83;7.00;;;;;;;;;;788035;179;626862;-74
2021/06/01 16:43:40;;;;;;;8.63;5.80;;;;;;;;;;781678;178;616256;-75
2021/06/01 17:03:50;;;;;;;59.50;24.23;;;;;;;;;;791436;177;617873;-76
2021/06/01 17:06:17;;;;;;;17.77;9.93;;;;;;;;;;777881;179;630851;-74
2021/06/01 17:09:05;;;;;;;13.27;9.37;;;;;;;;;;784993;177;645387;-75
2021/06/01 17:11:13;;;;;;;9.03;6.50;;;;;;;;;;784943;176;670331;-75
2021/06/01 17:13:37;;;;;;;7.07;5.10;;;;;;;;;;789437;177;633660;-75
2021/06/01 17:16:04;;;;;;;6.47;4.63;;;;;;;;;;785563;176;628258;-76
2021/06/01 17:18:41;;;;;;;6.90;4.97;;;;;;;;;;784646;177;625891;-75
2021/06/01 17:21:31;;;;;;;8.53;4.80;;;;;;;;;;783939;177;628735;-74
2021/06/01 17:36:39;;;;;;;7.30;5.10;;;;;;;;;;785080;177;638257;-76
2021/06/01 17:39:05;;;;;;;10.27;6.53;;;;;;;;;;785291;176;645754;-75
2021/06/01 17:41:30;;;;;;;16.62;7.10;;;;;;;;;;788760;179;648665;-75
2021/06/01 17:43:56;;;;;;;6.87;6.10;;;;;;;;;;783857;177;812324;-74
2021/06/01 17:46:22;;;;;;;15.70;6.60;;;;;;;;;;784669;177;633332;-75
2021/06/01 17:48:54;;;;;;;6.67;5.13;;;;;;;;;;789395;177;623399;-76
2021/06/01 17:51:15;;;;;;;8.63;5.80;;;;;;;;;;783953;176;618705;-75
2021/06/01 17:53:42;;;;;;;9.70;6.13;;;;;;;;;;778179;179;640511;-76
2021/06/01 17:56:09;;;;;;;8.90;6.03;;;;;;;;;;782950;176;635493;-74
2021/06/01 17:58:35;;;;;;;6.33;4.50;;;;;;;;;;785585;179;1550952;-76
2021/06/01 18:01:01;;;;;;;13.30;7.20;;;;;;;;;;788467;176;631853;-75
2021/06/01 18:03:27;;;;;;;9.90;6.40;;;;;;;;;;776575;179;632226;-75
2021/06/01 18:05:54;;;;;;;15.43;8.40;;;;;;;;;;789314;179;630075;-77
2021/06/01 18:08:30;;;;;;;9.90;5.30;;;;;;;;;;787579;178;634173;-75
2021/06/01 18:52:34;;;;;;;13.23;9.37;;;;;;;;;;787659;179;623714;-76
2021/06/01 19:02:09;;;;;;;12.63;8.10;;;;;;;;;;785442;177;637604;-76
2021/06/01 19:25:14;;;;;;;9.02;7.45;;;;;;;;;;787262;177;919540;-74
2021/06/01 19:50:45;;;;;;;11.43;7.10;;;;;;;;;;774169;179;919271;-77
2021/06/01 19:53:11;;;;;;;9.83;5.80;;;;;;;;;;789611;176;809281;-74
2021/06/01 19:55:37;;;;;;;9.70;5.90;;;;;;;;;;782001;177;919594;-75
2021/06/01 19:58:03;;;;;;;9.47;6.77;;;;;;;;;;780990;177;919082;-75
2021/06/01 20:00:29;;;;;;;8.77;6.60;;;;;;;;;;787450;177;915923;-75
2021/06/01 20:02:56;;;;;;;18.40;8.53;;;;;;;;;;782075;176;943646;-75
2021/06/01 20:05:21;;;;;;;12.17;7.33;;;;;;;;;;778790;177;919436;-75
2021/06/01 20:07:47;;;;;;;11.57;6.70;;;;;;;;;;775286;177;919281;-74
2021/06/01 20:10:12;;;;;;;8.87;7.70;;;;;;;;;;782633;178;919085;-75
2021/06/01 20:12:39;;;;;;;9.83;7.00;;;;;;;;;;781332;177;932701;-75